Flag for USA

Past Weather in Joshua Tree National Park, California, USA — July 2017

Currently: 84 °F. Clear. (Weather station: Twentynine Palms - Marine Corps Combat Center, USA). See more current weather

July 2017 Weather in Joshua Tree National Park — Graph

°F

High & Low Weather Summary for July 2017

 TemperatureHumidityPressure
High112 °F (Jul 7, 1:56 pm)69% (Jul 25, 1:56 am)30.08 "Hg (Jul 25, 1:56 am)
Low72 °F (Jul 3, 4:56 am)1% (Jul 1, 3:56 pm)29.67 "Hg (Jul 23, 5:56 pm)
Average93 °F21%29.86 "Hg
* Reported Jul 1 12:56 am — Jul 31 11:56 pm, Joshua Tree National Park. Weather by CustomWeather, © 2021

Note: Actual official high and low records may vary slightly from our data, if they occured in-between our weather recording intervals... More about our weather records

Joshua Tree National Park Weather History for July 1, 2017

Scroll right to see more
 ConditionsComfort  
Time TempWeatherWind HumidityBarometerVisibility
12:56 am
Sat, Jul 1
84 °FClear.7 mph14%29.75 "Hg9 mi
1:56 am84 °FClear.13 mph17%29.74 "Hg10 mi
2:56 am81 °FClear.7 mph21%29.74 "Hg10 mi
3:56 am78 °FClear.6 mph23%29.74 "Hg10 mi
4:56 am77 °FClear.6 mph24%29.75 "Hg10 mi
5:56 am77 °FSunny.9 mph19%29.77 "Hg9 mi
6:56 am80 °FSunny.8 mph15%29.78 "Hg9 mi
7:56 am82 °FSunny.5 mph18%29.79 "Hg8 mi
8:56 am90 °FSunny.3 mph14%29.78 "Hg10 mi
9:56 am96 °FSunny.3 mph10%29.78 "Hg10 mi
10:56 am99 °FSunny.6 mph8%29.77 "Hg10 mi
11:56 am102 °FSunny.14 mph6%29.76 "Hg10 mi
12:56 pm105 °FSunny.22 mph3%29.74 "Hg10 mi
1:56 pm105 °FSunny.8 mph2%29.73 "Hg10 mi
2:56 pm106 °FSunny.18 mph2%29.71 "Hg10 mi
3:56 pm105 °FSunny.16 mph1%29.70 "Hg10 mi
4:56 pm104 °FSunny.15 mph5%29.68 "Hg10 mi
5:56 pm101 °FSunny.18 mph8%29.69 "Hg10 mi
6:56 pm98 °FSunny.16 mph11%29.70 "Hg10 mi
7:56 pm94 °FSunny.16 mph17%29.72 "Hg10 mi
8:56 pm91 °FClear.18 mph15%29.72 "Hg10 mi
9:56 pm89 °FClear.10 mph16%29.74 "Hg10 mi
10:56 pm87 °FClear.3 mph17%29.76 "Hg10 mi
11:56 pm85 °FClear.No wind18%29.76 "Hg10 mi
Weather by CustomWeather, © 2021

See weather overview